Terminal Aerodrome Forecast
Issued by NWS

Home | Current Version | Previous Version | Text Only | Print | Product List | Glossary On
Versions: 1 2 3 4 5 6 7 8 9 10 11 12 13 14 15 16
000
FTUS46 KSEW 300537
TAFPAE
TAF
KPAE 300537Z 3006/3106 18015G25KT P6SM -RA SCT025 OVC045
     FM300800 18012KT P6SM SCT030 BKN045
     FM301500 18010KT P6SM -SHRA BKN030 OVC045
     FM302000 18014KT P6SM SCT030 BKN045 BKN070=

USA.gov is the U.S. government's official web portal to all federal, state and local government web resources and services.